sensor_id;sensor_type;location;lat;lon;timestamp;P1;durP1;ratioP1;P2;durP2;ratioP2
4909;SDS011;2470;49.868;8.660;2023-07-24T00:00:13;1.80;;;1.60;;
4909;SDS011;2470;49.868;8.660;2023-07-24T00:02:39;2.55;;;1.90;;
4909;SDS011;2470;49.868;8.660;2023-07-24T00:05:05;3.80;;;2.15;;
4909;SDS011;2470;49.868;8.660;2023-07-24T00:07:31;4.97;;;2.10;;
4909;SDS011;2470;49.868;8.660;2023-07-24T00:09:56;4.15;;;1.67;;
4909;SDS011;2470;49.868;8.660;2023-07-24T00:12:22;2.03;;;1.65;;
4909;SDS011;2470;49.868;8.660;2023-07-24T00:14:48;4.00;;;2.40;;
4909;SDS011;2470;49.868;8.660;2023-07-24T00:17:13;3.95;;;2.15;;
4909;SDS011;2470;49.868;8.660;2023-07-24T00:19:39;6.03;;;2.20;;
4909;SDS011;2470;49.868;8.660;2023-07-24T00:22:04;5.65;;;2.25;;
4909;SDS011;2470;49.868;8.660;2023-07-24T00:24:31;4.70;;;2.83;;
4909;SDS011;2470;49.868;8.660;2023-07-24T00:26:57;3.22;;;1.70;;
4909;SDS011;2470;49.868;8.660;2023-07-24T00:29:22;3.50;;;1.88;;
4909;SDS011;2470;49.868;8.660;2023-07-24T00:31:48;3.22;;;2.10;;
4909;SDS011;2470;49.868;8.660;2023-07-24T00:34:14;5.50;;;2.42;;
4909;SDS011;2470;49.868;8.660;2023-07-24T00:36:39;4.15;;;2.00;;
4909;SDS011;2470;49.868;8.660;2023-07-24T00:39:04;3.53;;;2.38;;
4909;SDS011;2470;49.868;8.660;2023-07-24T00:41:30;5.53;;;2.17;;
4909;SDS011;2470;49.868;8.660;2023-07-24T00:43:56;4.78;;;2.58;;
4909;SDS011;2470;49.868;8.660;2023-07-24T00:46:21;3.55;;;1.75;;
4909;SDS011;2470;49.868;8.660;2023-07-24T00:48:47;4.07;;;1.95;;
4909;SDS011;2470;49.868;8.660;2023-07-24T00:51:13;3.53;;;1.90;;
4909;SDS011;2470;49.868;8.660;2023-07-24T00:53:38;2.97;;;2.00;;
4909;SDS011;2470;49.868;8.660;2023-07-24T00:56:04;5.43;;;2.35;;
4909;SDS011;2470;49.868;8.660;2023-07-24T00:58:30;3.67;;;2.70;;
4909;SDS011;2470;49.868;8.660;2023-07-24T01:00:56;4.72;;;2.83;;
4909;SDS011;2470;49.868;8.660;2023-07-24T01:03:22;3.45;;;2.20;;
4909;SDS011;2470;49.868;8.660;2023-07-24T01:05:52;4.13;;;2.83;;
4909;SDS011;2470;49.868;8.660;2023-07-24T01:08:19;3.85;;;2.40;;
4909;SDS011;2470;49.868;8.660;2023-07-24T01:10:45;4.95;;;2.22;;
4909;SDS011;2470;49.868;8.660;2023-07-24T01:13:14;2.65;;;1.90;;
4909;SDS011;2470;49.868;8.660;2023-07-24T01:15:45;2.58;;;2.22;;
4909;SDS011;2470;49.868;8.660;2023-07-24T01:18:16;2.67;;;1.88;;
4909;SDS011;2470;49.868;8.660;2023-07-24T01:20:43;3.03;;;1.92;;
4909;SDS011;2470;49.868;8.660;2023-07-24T01:26:02;4.60;;;2.45;;
4909;SDS011;2470;49.868;8.660;2023-07-24T01:28:28;3.53;;;2.25;;
4909;SDS011;2470;49.868;8.660;2023-07-24T01:30:54;4.90;;;2.30;;
4909;SDS011;2470;49.868;8.660;2023-07-24T01:33:20;3.38;;;1.85;;
4909;SDS011;2470;49.868;8.660;2023-07-24T01:35:48;3.75;;;2.50;;
4909;SDS011;2470;49.868;8.660;2023-07-24T01:38:18;5.80;;;2.65;;
4909;SDS011;2470;49.868;8.660;2023-07-24T01:40:44;3.60;;;2.30;;
4909;SDS011;2470;49.868;8.660;2023-07-24T01:43:10;2.72;;;1.98;;
4909;SDS011;2470;49.868;8.660;2023-07-24T01:45:36;3.47;;;2.50;;
4909;SDS011;2470;49.868;8.660;2023-07-24T01:48:03;3.42;;;2.30;;
4909;SDS011;2470;49.868;8.660;2023-07-24T01:50:29;3.55;;;2.40;;
4909;SDS011;2470;49.868;8.660;2023-07-24T01:52:55;5.15;;;2.00;;
4909;SDS011;2470;49.868;8.660;2023-07-24T01:55:20;4.25;;;2.75;;
4909;SDS011;2470;49.868;8.660;2023-07-24T01:57:46;2.42;;;2.05;;
4909;SDS011;2470;49.868;8.660;2023-07-24T02:00:11;3.00;;;2.30;;
4909;SDS011;2470;49.868;8.660;2023-07-24T02:02:37;6.53;;;2.38;;
4909;SDS011;2470;49.868;8.660;2023-07-24T02:05:02;5.38;;;2.65;;
4909;SDS011;2470;49.868;8.660;2023-07-24T02:07:28;4.53;;;2.95;;
4909;SDS011;2470;49.868;8.660;2023-07-24T02:09:54;5.80;;;2.75;;
4909;SDS011;2470;49.868;8.660;2023-07-24T02:12:20;5.32;;;2.35;;
4909;SDS011;2470;49.868;8.660;2023-07-24T02:14:46;4.05;;;2.88;;
4909;SDS011;2470;49.868;8.660;2023-07-24T02:17:14;5.63;;;2.63;;
4909;SDS011;2470;49.868;8.660;2023-07-24T02:19:40;4.30;;;2.13;;
4909;SDS011;2470;49.868;8.660;2023-07-24T02:22:06;2.40;;;2.03;;
4909;SDS011;2470;49.868;8.660;2023-07-24T02:24:31;3.05;;;2.42;;
4909;SDS011;2470;49.868;8.660;2023-07-24T02:26:57;4.50;;;2.72;;
4909;SDS011;2470;49.868;8.660;2023-07-24T02:29:22;5.97;;;3.10;;
4909;SDS011;2470;49.868;8.660;2023-07-24T02:31:48;3.17;;;2.78;;
4909;SDS011;2470;49.868;8.660;2023-07-24T02:34:13;8.90;;;3.53;;
4909;SDS011;2470;49.868;8.660;2023-07-24T02:36:39;4.28;;;2.30;;
4909;SDS011;2470;49.868;8.660;2023-07-24T02:39:06;2.97;;;2.10;;
4909;SDS011;2470;49.868;8.660;2023-07-24T02:41:32;5.95;;;3.75;;
4909;SDS011;2470;49.868;8.660;2023-07-24T02:43:57;5.75;;;3.40;;
4909;SDS011;2470;49.868;8.660;2023-07-24T02:46:23;7.43;;;3.15;;
4909;SDS011;2470;49.868;8.660;2023-07-24T02:48:49;8.20;;;3.05;;
4909;SDS011;2470;49.868;8.660;2023-07-24T02:51:15;7.05;;;3.05;;
4909;SDS011;2470;49.868;8.660;2023-07-24T02:53:41;4.90;;;2.42;;
4909;SDS011;2470;49.868;8.660;2023-07-24T02:56:06;3.40;;;2.55;;
4909;SDS011;2470;49.868;8.660;2023-07-24T02:58:32;5.53;;;3.25;;
4909;SDS011;2470;49.868;8.660;2023-07-24T03:01:04;3.75;;;2.58;;
4909;SDS011;2470;49.868;8.660;2023-07-24T03:03:31;8.43;;;2.97;;
4909;SDS011;2470;49.868;8.660;2023-07-24T03:05:57;7.57;;;3.10;;
4909;SDS011;2470;49.868;8.660;2023-07-24T03:08:23;2.95;;;1.88;;
4909;SDS011;2470;49.868;8.660;2023-07-24T03:10:48;7.25;;;3.88;;
4909;SDS011;2470;49.868;8.660;2023-07-24T03:13:14;5.95;;;2.67;;
4909;SDS011;2470;49.868;8.660;2023-07-24T03:15:40;4.05;;;2.72;;
4909;SDS011;2470;49.868;8.660;2023-07-24T03:18:05;4.18;;;2.47;;
4909;SDS011;2470;49.868;8.660;2023-07-24T03:20:31;7.78;;;3.30;;
4909;SDS011;2470;49.868;8.660;2023-07-24T03:22:56;4.60;;;2.95;;
4909;SDS011;2470;49.868;8.660;2023-07-24T03:25:22;3.70;;;2.38;;
4909;SDS011;2470;49.868;8.660;2023-07-24T03:27:48;6.47;;;2.30;;
4909;SDS011;2470;49.868;8.660;2023-07-24T03:30:13;4.88;;;3.08;;
4909;SDS011;2470;49.868;8.660;2023-07-24T03:32:39;5.68;;;2.83;;
4909;SDS011;2470;49.868;8.660;2023-07-24T03:35:05;4.65;;;2.95;;
4909;SDS011;2470;49.868;8.660;2023-07-24T03:37:31;5.45;;;2.00;;
4909;SDS011;2470;49.868;8.660;2023-07-24T03:39:59;4.55;;;3.03;;
4909;SDS011;2470;49.868;8.660;2023-07-24T03:42:28;5.28;;;2.95;;
4909;SDS011;2470;49.868;8.660;2023-07-24T03:44:55;2.85;;;2.28;;
4909;SDS011;2470;49.868;8.660;2023-07-24T03:47:21;4.72;;;2.78;;
4909;SDS011;2470;49.868;8.660;2023-07-24T03:49:48;4.47;;;2.42;;
4909;SDS011;2470;49.868;8.660;2023-07-24T03:52:13;9.50;;;2.20;;
4909;SDS011;2470;49.868;8.660;2023-07-24T03:54:39;4.28;;;2.70;;
4909;SDS011;2470;49.868;8.660;2023-07-24T03:57:04;9.27;;;2.95;;
4909;SDS011;2470;49.868;8.660;2023-07-24T03:59:30;7.20;;;2.50;;
4909;SDS011;2470;49.868;8.660;2023-07-24T04:01:56;4.60;;;2.67;;
4909;SDS011;2470;49.868;8.660;2023-07-24T04:04:22;3.50;;;2.67;;
4909;SDS011;2470;49.868;8.660;2023-07-24T04:06:48;5.82;;;2.75;;
4909;SDS011;2470;49.868;8.660;2023-07-24T04:09:13;3.25;;;2.35;;
4909;SDS011;2470;49.868;8.660;2023-07-24T04:11:40;4.30;;;2.78;;
4909;SDS011;2470;49.868;8.660;2023-07-24T04:14:06;4.75;;;2.60;;
4909;SDS011;2470;49.868;8.660;2023-07-24T04:16:31;6.72;;;3.15;;
4909;SDS011;2470;49.868;8.660;2023-07-24T04:18:57;4.45;;;2.25;;
4909;SDS011;2470;49.868;8.660;2023-07-24T04:21:22;3.72;;;2.50;;
4909;SDS011;2470;49.868;8.660;2023-07-24T04:23:48;4.80;;;2.50;;
4909;SDS011;2470;49.868;8.660;2023-07-24T04:26:13;3.40;;;2.45;;
4909;SDS011;2470;49.868;8.660;2023-07-24T04:28:39;3.40;;;2.60;;
4909;SDS011;2470;49.868;8.660;2023-07-24T04:31:04;7.53;;;3.13;;
4909;SDS011;2470;49.868;8.660;2023-07-24T04:33:30;6.72;;;2.40;;
4909;SDS011;2470;49.868;8.660;2023-07-24T04:35:55;3.75;;;2.45;;
4909;SDS011;2470;49.868;8.660;2023-07-24T04:38:21;5.47;;;2.92;;
4909;SDS011;2470;49.868;8.660;2023-07-24T04:40:47;4.70;;;2.38;;
4909;SDS011;2470;49.868;8.660;2023-07-24T04:43:12;3.58;;;2.47;;
4909;SDS011;2470;49.868;8.660;2023-07-24T04:45:38;6.68;;;2.97;;
4909;SDS011;2470;49.868;8.660;2023-07-24T04:48:04;5.20;;;2.97;;
4909;SDS011;2470;49.868;8.660;2023-07-24T04:50:29;5.03;;;3.00;;
4909;SDS011;2470;49.868;8.660;2023-07-24T04:52:55;6.97;;;2.85;;
4909;SDS011;2470;49.868;8.660;2023-07-24T04:55:21;4.32;;;2.50;;
4909;SDS011;2470;49.868;8.660;2023-07-24T04:57:47;4.63;;;2.75;;
4909;SDS011;2470;49.868;8.660;2023-07-24T05:00:13;7.22;;;3.20;;
4909;SDS011;2470;49.868;8.660;2023-07-24T05:02:39;4.38;;;2.50;;
4909;SDS011;2470;49.868;8.660;2023-07-24T05:05:04;3.17;;;1.90;;
4909;SDS011;2470;49.868;8.660;2023-07-24T05:07:30;5.53;;;2.80;;
4909;SDS011;2470;49.868;8.660;2023-07-24T05:09:56;5.38;;;2.80;;
4909;SDS011;2470;49.868;8.660;2023-07-24T05:12:21;5.88;;;2.28;;
4909;SDS011;2470;49.868;8.660;2023-07-24T05:14:47;6.90;;;3.08;;
4909;SDS011;2470;49.868;8.660;2023-07-24T05:17:12;5.95;;;3.13;;
4909;SDS011;2470;49.868;8.660;2023-07-24T05:19:38;6.90;;;3.50;;
4909;SDS011;2470;49.868;8.660;2023-07-24T05:22:03;5.50;;;3.05;;
4909;SDS011;2470;49.868;8.660;2023-07-24T05:24:29;3.08;;;2.30;;
4909;SDS011;2470;49.868;8.660;2023-07-24T05:26:55;8.63;;;4.10;;
4909;SDS011;2470;49.868;8.660;2023-07-24T05:29:20;6.07;;;3.28;;
4909;SDS011;2470;49.868;8.660;2023-07-24T05:31:46;5.57;;;3.25;;
4909;SDS011;2470;49.868;8.660;2023-07-24T05:34:12;3.80;;;2.63;;
4909;SDS011;2470;49.868;8.660;2023-07-24T05:36:37;4.80;;;2.78;;
4909;SDS011;2470;49.868;8.660;2023-07-24T05:39:03;4.70;;;2.38;;
4909;SDS011;2470;49.868;8.660;2023-07-24T05:41:28;6.05;;;2.83;;
4909;SDS011;2470;49.868;8.660;2023-07-24T05:43:54;7.88;;;3.38;;
4909;SDS011;2470;49.868;8.660;2023-07-24T05:46:20;10.20;;;3.53;;
4909;SDS011;2470;49.868;8.660;2023-07-24T05:48:46;11.27;;;2.78;;
4909;SDS011;2470;49.868;8.660;2023-07-24T05:51:11;7.15;;;3.10;;
4909;SDS011;2470;49.868;8.660;2023-07-24T05:53:37;7.80;;;2.83;;
4909;SDS011;2470;49.868;8.660;2023-07-24T05:56:02;9.18;;;3.20;;
4909;SDS011;2470;49.868;8.660;2023-07-24T05:58:28;6.78;;;2.88;;
4909;SDS011;2470;49.868;8.660;2023-07-24T06:00:54;5.20;;;3.40;;
4909;SDS011;2470;49.868;8.660;2023-07-24T06:03:20;4.78;;;2.83;;
4909;SDS011;2470;49.868;8.660;2023-07-24T06:05:55;5.10;;;3.20;;
4909;SDS011;2470;49.868;8.660;2023-07-24T06:08:21;6.82;;;3.35;;
4909;SDS011;2470;49.868;8.660;2023-07-24T06:10:47;4.57;;;3.17;;
4909;SDS011;2470;49.868;8.660;2023-07-24T06:13:15;4.72;;;3.15;;
4909;SDS011;2470;49.868;8.660;2023-07-24T06:15:44;4.85;;;3.03;;
4909;SDS011;2470;49.868;8.660;2023-07-24T06:18:11;10.55;;;3.45;;
4909;SDS011;2470;49.868;8.660;2023-07-24T06:20:37;10.93;;;3.35;;
4909;SDS011;2470;49.868;8.660;2023-07-24T06:23:02;7.32;;;3.25;;
4909;SDS011;2470;49.868;8.660;2023-07-24T06:25:29;8.00;;;3.67;;
4909;SDS011;2470;49.868;8.660;2023-07-24T06:27:55;5.88;;;3.30;;
4909;SDS011;2470;49.868;8.660;2023-07-24T06:30:21;6.78;;;3.42;;
4909;SDS011;2470;49.868;8.660;2023-07-24T06:32:47;7.57;;;3.25;;
4909;SDS011;2470;49.868;8.660;2023-07-24T06:35:12;6.07;;;3.95;;
4909;SDS011;2470;49.868;8.660;2023-07-24T06:37:38;7.10;;;3.63;;
4909;SDS011;2470;49.868;8.660;2023-07-24T06:40:03;7.30;;;3.50;;
4909;SDS011;2470;49.868;8.660;2023-07-24T06:42:29;8.57;;;6.05;;
4909;SDS011;2470;49.868;8.660;2023-07-24T06:44:55;6.88;;;4.18;;
4909;SDS011;2470;49.868;8.660;2023-07-24T06:47:20;6.28;;;3.83;;
4909;SDS011;2470;49.868;8.660;2023-07-24T06:49:46;5.00;;;3.28;;
4909;SDS011;2470;49.868;8.660;2023-07-24T06:52:12;5.85;;;3.25;;
4909;SDS011;2470;49.868;8.660;2023-07-24T06:54:37;7.53;;;3.75;;
4909;SDS011;2470;49.868;8.660;2023-07-24T06:57:03;6.97;;;3.10;;
4909;SDS011;2470;49.868;8.660;2023-07-24T06:59:29;7.60;;;3.75;;
4909;SDS011;2470;49.868;8.660;2023-07-24T07:01:55;11.18;;;3.92;;
4909;SDS011;2470;49.868;8.660;2023-07-24T07:04:20;7.05;;;4.22;;
4909;SDS011;2470;49.868;8.660;2023-07-24T07:06:45;9.77;;;3.55;;
4909;SDS011;2470;49.868;8.660;2023-07-24T07:09:11;9.10;;;3.50;;
4909;SDS011;2470;49.868;8.660;2023-07-24T07:11:36;5.43;;;2.97;;
4909;SDS011;2470;49.868;8.660;2023-07-24T07:14:02;7.55;;;4.13;;
4909;SDS011;2470;49.868;8.660;2023-07-24T07:16:27;8.57;;;3.90;;
4909;SDS011;2470;49.868;8.660;2023-07-24T07:18:53;6.43;;;3.88;;
4909;SDS011;2470;49.868;8.660;2023-07-24T07:21:18;16.30;;;4.47;;
4909;SDS011;2470;49.868;8.660;2023-07-24T07:23:44;7.10;;;3.30;;
4909;SDS011;2470;49.868;8.660;2023-07-24T07:26:09;11.13;;;4.20;;
4909;SDS011;2470;49.868;8.660;2023-07-24T07:28:35;5.85;;;3.85;;
4909;SDS011;2470;49.868;8.660;2023-07-24T07:31:00;6.93;;;3.90;;
4909;SDS011;2470;49.868;8.660;2023-07-24T07:33:26;7.57;;;3.90;;
4909;SDS011;2470;49.868;8.660;2023-07-24T07:35:52;8.90;;;4.68;;
4909;SDS011;2470;49.868;8.660;2023-07-24T07:38:17;7.20;;;3.92;;
4909;SDS011;2470;49.868;8.660;2023-07-24T07:40:42;8.82;;;4.43;;
4909;SDS011;2470;49.868;8.660;2023-07-24T07:43:08;6.40;;;3.72;;
4909;SDS011;2470;49.868;8.660;2023-07-24T07:45:34;7.63;;;3.95;;
4909;SDS011;2470;49.868;8.660;2023-07-24T07:47:59;8.48;;;4.90;;
4909;SDS011;2470;49.868;8.660;2023-07-24T07:50:25;8.38;;;3.65;;
4909;SDS011;2470;49.868;8.660;2023-07-24T07:52:51;9.27;;;4.22;;
4909;SDS011;2470;49.868;8.660;2023-07-24T07:55:20;5.63;;;3.88;;
4909;SDS011;2470;49.868;8.660;2023-07-24T07:57:45;11.88;;;3.42;;
4909;SDS011;2470;49.868;8.660;2023-07-24T08:00:11;7.38;;;3.90;;
4909;SDS011;2470;49.868;8.660;2023-07-24T08:02:37;6.15;;;3.20;;
4909;SDS011;2470;49.868;8.660;2023-07-24T08:05:09;6.78;;;3.25;;
4909;SDS011;2470;49.868;8.660;2023-07-24T08:07:35;5.57;;;3.15;;
4909;SDS011;2470;49.868;8.660;2023-07-24T08:10:01;7.65;;;3.45;;
4909;SDS011;2470;49.868;8.660;2023-07-24T08:12:27;7.82;;;4.05;;
4909;SDS011;2470;49.868;8.660;2023-07-24T08:14:53;4.75;;;2.95;;
4909;SDS011;2470;49.868;8.660;2023-07-24T08:17:18;6.85;;;2.70;;
4909;SDS011;2470;49.868;8.660;2023-07-24T08:19:44;5.00;;;2.88;;
4909;SDS011;2470;49.868;8.660;2023-07-24T08:22:10;8.30;;;3.45;;
4909;SDS011;2470;49.868;8.660;2023-07-24T08:24:35;5.80;;;3.33;;
4909;SDS011;2470;49.868;8.660;2023-07-24T08:27:01;4.45;;;3.70;;
4909;SDS011;2470;49.868;8.660;2023-07-24T08:29:27;8.90;;;3.33;;
4909;SDS011;2470;49.868;8.660;2023-07-24T08:31:53;5.18;;;3.75;;
4909;SDS011;2470;49.868;8.660;2023-07-24T08:34:18;6.07;;;3.47;;
4909;SDS011;2470;49.868;8.660;2023-07-24T08:36:44;7.57;;;2.85;;
4909;SDS011;2470;49.868;8.660;2023-07-24T08:39:09;7.93;;;3.40;;
4909;SDS011;2470;49.868;8.660;2023-07-24T08:41:36;5.95;;;3.67;;
4909;SDS011;2470;49.868;8.660;2023-07-24T08:44:02;8.77;;;3.95;;
4909;SDS011;2470;49.868;8.660;2023-07-24T08:46:30;7.53;;;3.70;;
4909;SDS011;2470;49.868;8.660;2023-07-24T08:49:00;6.85;;;3.53;;
4909;SDS011;2470;49.868;8.660;2023-07-24T08:51:26;7.03;;;3.55;;
4909;SDS011;2470;49.868;8.660;2023-07-24T08:53:52;7.50;;;3.58;;
4909;SDS011;2470;49.868;8.660;2023-07-24T08:56:18;7.57;;;3.30;;
4909;SDS011;2470;49.868;8.660;2023-07-24T08:58:44;6.70;;;3.78;;
4909;SDS011;2470;49.868;8.660;2023-07-24T09:01:10;6.85;;;3.92;;
4909;SDS011;2470;49.868;8.660;2023-07-24T09:03:36;6.00;;;3.47;;
4909;SDS011;2470;49.868;8.660;2023-07-24T09:06:01;7.93;;;3.70;;
4909;SDS011;2470;49.868;8.660;2023-07-24T09:10:55;3.50;;;2.47;;
4909;SDS011;2470;49.868;8.660;2023-07-24T09:13:20;4.82;;;3.22;;
4909;SDS011;2470;49.868;8.660;2023-07-24T09:15:46;5.30;;;3.08;;
4909;SDS011;2470;49.868;8.660;2023-07-24T09:18:12;4.65;;;3.22;;
4909;SDS011;2470;49.868;8.660;2023-07-24T09:20:38;4.60;;;3.15;;
4909;SDS011;2470;49.868;8.660;2023-07-24T09:23:05;6.97;;;3.45;;
4909;SDS011;2470;49.868;8.660;2023-07-24T09:25:32;9.93;;;3.50;;
4909;SDS011;2470;49.868;8.660;2023-07-24T09:27:59;7.53;;;3.80;;
4909;SDS011;2470;49.868;8.660;2023-07-24T09:30:24;4.13;;;3.17;;
4909;SDS011;2470;49.868;8.660;2023-07-24T09:32:53;5.78;;;3.20;;
4909;SDS011;2470;49.868;8.660;2023-07-24T09:35:19;5.88;;;3.28;;
4909;SDS011;2470;49.868;8.660;2023-07-24T09:37:47;4.63;;;2.70;;
4909;SDS011;2470;49.868;8.660;2023-07-24T09:40:14;5.65;;;3.58;;
4909;SDS011;2470;49.868;8.660;2023-07-24T09:42:40;6.68;;;3.38;;
4909;SDS011;2470;49.868;8.660;2023-07-24T09:45:06;6.00;;;3.30;;
4909;SDS011;2470;49.868;8.660;2023-07-24T09:47:38;6.10;;;3.40;;
4909;SDS011;2470;49.868;8.660;2023-07-24T09:50:07;6.28;;;3.05;;
4909;SDS011;2470;49.868;8.660;2023-07-24T09:52:33;6.53;;;3.70;;
4909;SDS011;2470;49.868;8.660;2023-07-24T09:55:11;5.72;;;3.70;;
4909;SDS011;2470;49.868;8.660;2023-07-24T09:57:40;6.45;;;3.97;;
4909;SDS011;2470;49.868;8.660;2023-07-24T10:00:06;9.57;;;4.45;;
4909;SDS011;2470;49.868;8.660;2023-07-24T10:02:33;9.45;;;4.93;;
4909;SDS011;2470;49.868;8.660;2023-07-24T10:05:01;10.95;;;5.63;;
4909;SDS011;2470;49.868;8.660;2023-07-24T10:07:26;8.50;;;4.03;;
4909;SDS011;2470;49.868;8.660;2023-07-24T10:09:52;10.25;;;4.10;;
4909;SDS011;2470;49.868;8.660;2023-07-24T10:12:19;7.03;;;3.75;;
4909;SDS011;2470;49.868;8.660;2023-07-24T10:14:46;6.55;;;4.13;;
4909;SDS011;2470;49.868;8.660;2023-07-24T10:17:12;8.68;;;4.28;;
4909;SDS011;2470;49.868;8.660;2023-07-24T10:19:41;5.57;;;3.67;;
4909;SDS011;2470;49.868;8.660;2023-07-24T10:22:16;5.55;;;3.53;;
4909;SDS011;2470;49.868;8.660;2023-07-24T10:24:44;5.95;;;3.78;;
4909;SDS011;2470;49.868;8.660;2023-07-24T10:27:11;5.18;;;3.50;;
4909;SDS011;2470;49.868;8.660;2023-07-24T10:29:37;6.07;;;4.15;;
4909;SDS011;2470;49.868;8.660;2023-07-24T10:32:02;6.93;;;3.65;;
4909;SDS011;2470;49.868;8.660;2023-07-24T10:34:38;5.65;;;3.00;;
4909;SDS011;2470;49.868;8.660;2023-07-24T10:37:06;7.13;;;3.17;;
4909;SDS011;2470;49.868;8.660;2023-07-24T10:39:40;7.53;;;3.90;;
4909;SDS011;2470;49.868;8.660;2023-07-24T10:42:07;7.30;;;4.28;;
4909;SDS011;2470;49.868;8.660;2023-07-24T10:44:34;7.47;;;3.42;;
4909;SDS011;2470;49.868;8.660;2023-07-24T10:47:00;7.70;;;3.30;;
4909;SDS011;2470;49.868;8.660;2023-07-24T10:49:26;7.35;;;3.55;;
4909;SDS011;2470;49.868;8.660;2023-07-24T10:51:55;5.95;;;3.38;;
4909;SDS011;2470;49.868;8.660;2023-07-24T10:54:21;8.07;;;3.42;;
4909;SDS011;2470;49.868;8.660;2023-07-24T10:56:47;5.60;;;3.72;;
4909;SDS011;2470;49.868;8.660;2023-07-24T10:59:12;7.03;;;3.63;;
4909;SDS011;2470;49.868;8.660;2023-07-24T11:01:39;6.10;;;3.65;;
4909;SDS011;2470;49.868;8.660;2023-07-24T11:04:06;7.47;;;3.92;;
4909;SDS011;2470;49.868;8.660;2023-07-24T11:06:32;4.85;;;3.60;;
4909;SDS011;2470;49.868;8.660;2023-07-24T11:08:59;6.90;;;3.75;;
4909;SDS011;2470;49.868;8.660;2023-07-24T11:11:31;5.45;;;3.45;;
4909;SDS011;2470;49.868;8.660;2023-07-24T11:13:58;7.78;;;3.78;;
4909;SDS011;2470;49.868;8.660;2023-07-24T11:16:25;6.82;;;4.03;;
4909;SDS011;2470;49.868;8.660;2023-07-24T11:18:50;7.45;;;4.03;;
4909;SDS011;2470;49.868;8.660;2023-07-24T11:21:17;4.57;;;3.28;;
4909;SDS011;2470;49.868;8.660;2023-07-24T11:23:46;5.20;;;3.30;;
4909;SDS011;2470;49.868;8.660;2023-07-24T11:26:20;5.20;;;3.20;;
4909;SDS011;2470;49.868;8.660;2023-07-24T11:28:50;5.22;;;3.55;;
4909;SDS011;2470;49.868;8.660;2023-07-24T11:31:16;8.50;;;4.28;;
4909;SDS011;2470;49.868;8.660;2023-07-24T11:33:44;6.25;;;4.13;;
4909;SDS011;2470;49.868;8.660;2023-07-24T11:36:11;6.15;;;3.00;;
4909;SDS011;2470;49.868;8.660;2023-07-24T11:38:38;5.93;;;3.40;;
4909;SDS011;2470;49.868;8.660;2023-07-24T11:41:04;5.53;;;3.10;;
4909;SDS011;2470;49.868;8.660;2023-07-24T11:43:29;10.57;;;3.75;;
4909;SDS011;2470;49.868;8.660;2023-07-24T11:45:55;3.75;;;3.00;;
4909;SDS011;2470;49.868;8.660;2023-07-24T11:48:22;4.78;;;3.40;;
4909;SDS011;2470;49.868;8.660;2023-07-24T11:50:52;5.55;;;3.13;;
4909;SDS011;2470;49.868;8.660;2023-07-24T11:53:20;6.47;;;3.22;;
4909;SDS011;2470;49.868;8.660;2023-07-24T11:55:48;4.35;;;3.10;;
4909;SDS011;2470;49.868;8.660;2023-07-24T11:58:14;5.93;;;3.88;;
4909;SDS011;2470;49.868;8.660;2023-07-24T12:00:41;5.50;;;3.17;;
4909;SDS011;2470;49.868;8.660;2023-07-24T12:03:07;4.03;;;2.65;;
4909;SDS011;2470;49.868;8.660;2023-07-24T12:05:42;4.43;;;2.88;;
4909;SDS011;2470;49.868;8.660;2023-07-24T12:08:09;3.55;;;2.30;;
4909;SDS011;2470;49.868;8.660;2023-07-24T12:10:38;5.03;;;2.95;;
4909;SDS011;2470;49.868;8.660;2023-07-24T12:13:05;3.72;;;2.47;;
4909;SDS011;2470;49.868;8.660;2023-07-24T12:15:31;3.22;;;2.33;;
4909;SDS011;2470;49.868;8.660;2023-07-24T12:17:58;2.97;;;2.50;;
4909;SDS011;2470;49.868;8.660;2023-07-24T12:20:24;4.40;;;2.38;;
4909;SDS011;2470;49.868;8.660;2023-07-24T12:22:50;5.95;;;2.05;;
4909;SDS011;2470;49.868;8.660;2023-07-24T12:25:15;4.03;;;3.22;;
4909;SDS011;2470;49.868;8.660;2023-07-24T12:27:41;4.90;;;3.17;;
4909;SDS011;2470;49.868;8.660;2023-07-24T12:30:07;4.82;;;3.13;;
4909;SDS011;2470;49.868;8.660;2023-07-24T12:32:33;4.45;;;2.60;;
4909;SDS011;2470;49.868;8.660;2023-07-24T12:35:00;5.75;;;2.90;;
4909;SDS011;2470;49.868;8.660;2023-07-24T12:37:26;5.03;;;2.63;;
4909;SDS011;2470;49.868;8.660;2023-07-24T12:39:51;3.17;;;2.80;;
4909;SDS011;2470;49.868;8.660;2023-07-24T12:42:17;3.47;;;2.95;;
4909;SDS011;2470;49.868;8.660;2023-07-24T12:44:43;4.38;;;3.10;;
4909;SDS011;2470;49.868;8.660;2023-07-24T12:47:09;3.35;;;2.50;;
4909;SDS011;2470;49.868;8.660;2023-07-24T12:49:35;5.78;;;2.85;;
4909;SDS011;2470;49.868;8.660;2023-07-24T12:52:01;3.60;;;2.78;;
4909;SDS011;2470;49.868;8.660;2023-07-24T12:54:27;4.68;;;3.25;;
4909;SDS011;2470;49.868;8.660;2023-07-24T12:56:53;4.57;;;2.85;;
4909;SDS011;2470;49.868;8.660;2023-07-24T12:59:18;3.53;;;2.50;;
4909;SDS011;2470;49.868;8.660;2023-07-24T13:01:44;4.82;;;2.95;;
4909;SDS011;2470;49.868;8.660;2023-07-24T13:04:10;3.38;;;2.10;;
4909;SDS011;2470;49.868;8.660;2023-07-24T13:06:36;3.28;;;2.70;;
4909;SDS011;2470;49.868;8.660;2023-07-24T13:09:01;5.03;;;2.88;;
4909;SDS011;2470;49.868;8.660;2023-07-24T13:11:27;4.55;;;2.58;;
4909;SDS011;2470;49.868;8.660;2023-07-24T13:13:54;6.18;;;3.40;;
4909;SDS011;2470;49.868;8.660;2023-07-24T13:16:19;4.68;;;2.90;;
4909;SDS011;2470;49.868;8.660;2023-07-24T13:18:45;5.57;;;2.70;;
4909;SDS011;2470;49.868;8.660;2023-07-24T13:21:11;3.35;;;2.67;;
4909;SDS011;2470;49.868;8.660;2023-07-24T13:23:37;4.75;;;3.25;;
4909;SDS011;2470;49.868;8.660;2023-07-24T13:26:02;3.88;;;2.90;;
4909;SDS011;2470;49.868;8.660;2023-07-24T13:28:28;5.60;;;2.78;;
4909;SDS011;2470;49.868;8.660;2023-07-24T13:30:54;5.35;;;3.00;;
4909;SDS011;2470;49.868;8.660;2023-07-24T13:33:20;5.65;;;3.28;;
4909;SDS011;2470;49.868;8.660;2023-07-24T13:35:47;4.57;;;2.95;;
4909;SDS011;2470;49.868;8.660;2023-07-24T13:38:13;5.03;;;3.10;;
4909;SDS011;2470;49.868;8.660;2023-07-24T13:40:39;5.18;;;3.70;;
4909;SDS011;2470;49.868;8.660;2023-07-24T13:43:05;5.13;;;3.17;;
4909;SDS011;2470;49.868;8.660;2023-07-24T13:45:30;4.82;;;3.13;;
4909;SDS011;2470;49.868;8.660;2023-07-24T13:47:56;4.93;;;3.42;;
4909;SDS011;2470;49.868;8.660;2023-07-24T13:50:23;6.60;;;3.70;;
4909;SDS011;2470;49.868;8.660;2023-07-24T13:52:48;4.40;;;2.85;;
4909;SDS011;2470;49.868;8.660;2023-07-24T13:55:14;6.70;;;3.47;;
4909;SDS011;2470;49.868;8.660;2023-07-24T13:57:40;5.22;;;3.42;;
4909;SDS011;2470;49.868;8.660;2023-07-24T14:00:06;8.40;;;4.32;;
4909;SDS011;2470;49.868;8.660;2023-07-24T14:02:32;4.88;;;3.20;;
4909;SDS011;2470;49.868;8.660;2023-07-24T14:04:57;14.25;;;4.63;;
4909;SDS011;2470;49.868;8.660;2023-07-24T14:07:23;7.15;;;4.10;;
4909;SDS011;2470;49.868;8.660;2023-07-24T14:09:48;11.25;;;4.63;;
4909;SDS011;2470;49.868;8.660;2023-07-24T14:12:14;6.40;;;4.22;;
4909;SDS011;2470;49.868;8.660;2023-07-24T14:14:39;8.60;;;3.92;;
4909;SDS011;2470;49.868;8.660;2023-07-24T14:17:05;8.07;;;4.60;;
4909;SDS011;2470;49.868;8.660;2023-07-24T14:19:31;5.32;;;3.45;;
4909;SDS011;2470;49.868;8.660;2023-07-24T14:21:56;8.98;;;4.15;;
4909;SDS011;2470;49.868;8.660;2023-07-24T14:24:22;7.22;;;3.72;;
4909;SDS011;2470;49.868;8.660;2023-07-24T14:26:47;6.05;;;3.30;;
4909;SDS011;2470;49.868;8.660;2023-07-24T14:29:13;7.28;;;4.63;;
4909;SDS011;2470;49.868;8.660;2023-07-24T14:31:42;4.07;;;3.03;;
4909;SDS011;2470;49.868;8.660;2023-07-24T14:34:08;4.82;;;3.50;;
4909;SDS011;2470;49.868;8.660;2023-07-24T14:36:37;4.50;;;3.22;;
4909;SDS011;2470;49.868;8.660;2023-07-24T14:39:03;8.48;;;2.70;;
4909;SDS011;2470;49.868;8.660;2023-07-24T14:41:29;4.47;;;3.00;;
4909;SDS011;2470;49.868;8.660;2023-07-24T14:43:55;3.92;;;2.38;;
4909;SDS011;2470;49.868;8.660;2023-07-24T14:46:20;2.60;;;2.30;;
4909;SDS011;2470;49.868;8.660;2023-07-24T14:48:46;2.95;;;2.33;;
4909;SDS011;2470;49.868;8.660;2023-07-24T14:51:12;3.55;;;2.78;;
4909;SDS011;2470;49.868;8.660;2023-07-24T14:53:37;3.58;;;2.10;;
4909;SDS011;2470;49.868;8.660;2023-07-24T14:56:03;3.05;;;2.22;;
4909;SDS011;2470;49.868;8.660;2023-07-24T14:58:29;1.92;;;1.83;;
4909;SDS011;2470;49.868;8.660;2023-07-24T15:00:54;2.55;;;1.88;;
4909;SDS011;2470;49.868;8.660;2023-07-24T15:03:20;1.95;;;1.45;;
4909;SDS011;2470;49.868;8.660;2023-07-24T15:05:46;4.35;;;2.28;;
4909;SDS011;2470;49.868;8.660;2023-07-24T15:08:12;1.80;;;1.70;;
4909;SDS011;2470;49.868;8.660;2023-07-24T15:10:37;2.20;;;1.98;;
4909;SDS011;2470;49.868;8.660;2023-07-24T15:13:03;1.75;;;1.65;;